首页
METAR-TAF:

METAR-TAF

机场 :

Custer Airport

门罗, 密歇根州, 美国

纬度: 41-56-24N, 经度: 083-26-05W, 海拔: 188米

当前天气观测

该预报发布于22分钟前的07:55 UTC
风速10节,风向西转西南
温度 1°C
湿度 86%
气压 1010 hPa
能見度: 8.0公里
阴天层高于500英尺
轻雾

METAR: KTTF 260755Z AUTO 25010KT 5SM BR OVC005 01/M01 A2983 RMK AO2 T00051011

时间: 03:17 (08:17 UTC)


TAF: 丢失

超过4000个机场的气象观测和天气预报(METAR&TAF报告)。

可查询的气象台以黄色和红色小点在地图上表示。

将鼠标移到小点上方,可查看气象台名称。

然后点击查看天气观测和预报。

如需切换地图:点击带黑十字的绿色按钮放大地图;点击带横线的绿色按钮缩小地图;或者点击绿色箭头查看邻近地区的地图。


METAR-TAF: